Terminal Aerodrome Forecast
Issued by NWS Twin Cities, MN

Home | Current Version | Previous Version | Text Only | Print | Product List | Glossary On
Versions: 1 2 3 4 5 6 7 8 9 10 11 12
000
FTUS43 KMPX 022330
TAFSTC
TAF
KSTC 022330Z 0300/0324 VRB03KT P6SM SKC
     FM031200 26007KT P6SM SCT250
     FM031500 27012G19KT P6SM SCT250
     FM032100 31018G28KT P6SM SKC=

USA.gov is the U.S. government's official web portal to all federal, state and local government web resources and services.